sensor_id;sensor_type;location;lat;lon;timestamp;temperature;humidity
20057;DHT22;10189;49.546;7.906;2023-05-17T00:00:52;6.80;83.90
20057;DHT22;10189;49.546;7.906;2023-05-17T00:03:18;6.80;83.80
20057;DHT22;10189;49.546;7.906;2023-05-17T00:05:45;6.90;83.60
20057;DHT22;10189;49.546;7.906;2023-05-17T00:08:11;6.90;83.60
20057;DHT22;10189;49.546;7.906;2023-05-17T00:10:37;6.90;83.40
20057;DHT22;10189;49.546;7.906;2023-05-17T00:13:02;7.00;83.30
20057;DHT22;10189;49.546;7.906;2023-05-17T00:15:28;7.00;83.10
20057;DHT22;10189;49.546;7.906;2023-05-17T00:17:54;7.00;83.10
20057;DHT22;10189;49.546;7.906;2023-05-17T00:20:20;7.00;83.30
20057;DHT22;10189;49.546;7.906;2023-05-17T00:22:46;7.00;83.40
20057;DHT22;10189;49.546;7.906;2023-05-17T00:25:12;7.00;83.90
20057;DHT22;10189;49.546;7.906;2023-05-17T00:27:38;7.10;83.10
20057;DHT22;10189;49.546;7.906;2023-05-17T00:30:04;7.10;83.00
20057;DHT22;10189;49.546;7.906;2023-05-17T00:32:31;7.10;83.10
20057;DHT22;10189;49.546;7.906;2023-05-17T00:34:57;7.10;83.20
20057;DHT22;10189;49.546;7.906;2023-05-17T00:37:23;7.10;83.30
20057;DHT22;10189;49.546;7.906;2023-05-17T00:39:49;7.10;83.30
20057;DHT22;10189;49.546;7.906;2023-05-17T00:42:15;7.10;83.60
20057;DHT22;10189;49.546;7.906;2023-05-17T00:44:40;7.10;83.50
20057;DHT22;10189;49.546;7.906;2023-05-17T00:47:06;7.10;83.80
20057;DHT22;10189;49.546;7.906;2023-05-17T00:49:32;7.10;83.60
20057;DHT22;10189;49.546;7.906;2023-05-17T00:51:58;7.10;83.70
20057;DHT22;10189;49.546;7.906;2023-05-17T00:54:25;7.10;83.40
20057;DHT22;10189;49.546;7.906;2023-05-17T00:56:54;7.10;83.50
20057;DHT22;10189;49.546;7.906;2023-05-17T00:59:22;7.20;83.50
20057;DHT22;10189;49.546;7.906;2023-05-17T01:01:50;7.20;83.70
20057;DHT22;10189;49.546;7.906;2023-05-17T01:04:17;7.10;83.90
20057;DHT22;10189;49.546;7.906;2023-05-17T01:06:43;7.10;83.90
20057;DHT22;10189;49.546;7.906;2023-05-17T01:09:10;7.10;83.90
20057;DHT22;10189;49.546;7.906;2023-05-17T01:17:38;7.10;83.90
20057;DHT22;10189;49.546;7.906;2023-05-17T01:23:30;7.10;83.60
20057;DHT22;10189;49.546;7.906;2023-05-17T01:26:38;7.10;83.90
20057;DHT22;10189;49.546;7.906;2023-05-17T01:29:08;7.00;84.20
20057;DHT22;10189;49.546;7.906;2023-05-17T01:31:36;6.90;84.80
20057;DHT22;10189;49.546;7.906;2023-05-17T01:34:07;6.90;85.30
20057;DHT22;10189;49.546;7.906;2023-05-17T01:36:34;6.80;86.00
20057;DHT22;10189;49.546;7.906;2023-05-17T01:39:00;6.70;86.50
20057;DHT22;10189;49.546;7.906;2023-05-17T01:41:32;6.60;86.90
20057;DHT22;10189;49.546;7.906;2023-05-17T01:44:51;6.50;87.60
20057;DHT22;10189;49.546;7.906;2023-05-17T01:50:55;6.10;89.60
20057;DHT22;10189;49.546;7.906;2023-05-17T01:53:29;6.00;90.20
20057;DHT22;10189;49.546;7.906;2023-05-17T01:56:18;5.90;91.20
20057;DHT22;10189;49.546;7.906;2023-05-17T01:58:47;5.70;91.80
20057;DHT22;10189;49.546;7.906;2023-05-17T02:01:15;5.60;92.50
20057;DHT22;10189;49.546;7.906;2023-05-17T02:03:46;5.60;92.70
20057;DHT22;10189;49.546;7.906;2023-05-17T02:06:14;5.50;92.10
20057;DHT22;10189;49.546;7.906;2023-05-17T02:08:40;5.60;90.50
20057;DHT22;10189;49.546;7.906;2023-05-17T02:11:06;5.80;89.60
20057;DHT22;10189;49.546;7.906;2023-05-17T02:13:32;5.80;89.20
20057;DHT22;10189;49.546;7.906;2023-05-17T02:16:02;5.80;89.40
20057;DHT22;10189;49.546;7.906;2023-05-17T02:18:29;5.80;89.30
20057;DHT22;10189;49.546;7.906;2023-05-17T02:20:57;5.80;89.60
20057;DHT22;10189;49.546;7.906;2023-05-17T02:23:22;5.80;89.70
20057;DHT22;10189;49.546;7.906;2023-05-17T02:25:51;5.80;89.60
20057;DHT22;10189;49.546;7.906;2023-05-17T02:28:17;5.60;89.70
20057;DHT22;10189;49.546;7.906;2023-05-17T02:30:43;5.50;90.50
20057;DHT22;10189;49.546;7.906;2023-05-17T02:33:10;5.40;91.20
20057;DHT22;10189;49.546;7.906;2023-05-17T02:35:36;5.30;92.30
20057;DHT22;10189;49.546;7.906;2023-05-17T02:38:02;5.30;92.80
20057;DHT22;10189;49.546;7.906;2023-05-17T02:40:28;5.20;92.90
20057;DHT22;10189;49.546;7.906;2023-05-17T02:42:54;5.20;93.20
20057;DHT22;10189;49.546;7.906;2023-05-17T02:45:20;5.20;93.60
20057;DHT22;10189;49.546;7.906;2023-05-17T02:47:45;5.20;93.80
20057;DHT22;10189;49.546;7.906;2023-05-17T02:50:11;5.30;93.70
20057;DHT22;10189;49.546;7.906;2023-05-17T02:52:37;5.30;93.80
20057;DHT22;10189;49.546;7.906;2023-05-17T02:55:05;5.30;93.60
20057;DHT22;10189;49.546;7.906;2023-05-17T02:57:31;5.20;94.00
20057;DHT22;10189;49.546;7.906;2023-05-17T02:59:58;5.20;94.10
20057;DHT22;10189;49.546;7.906;2023-05-17T03:02:25;5.30;94.10
20057;DHT22;10189;49.546;7.906;2023-05-17T03:04:52;5.20;94.00
20057;DHT22;10189;49.546;7.906;2023-05-17T03:07:17;5.10;94.30
20057;DHT22;10189;49.546;7.906;2023-05-17T03:09:43;5.00;94.70
20057;DHT22;10189;49.546;7.906;2023-05-17T03:12:09;4.90;95.50
20057;DHT22;10189;49.546;7.906;2023-05-17T03:14:36;4.80;96.50
20057;DHT22;10189;49.546;7.906;2023-05-17T03:17:02;4.80;96.90
20057;DHT22;10189;49.546;7.906;2023-05-17T03:19:28;4.80;97.00
20057;DHT22;10189;49.546;7.906;2023-05-17T03:21:54;4.80;97.10
20057;DHT22;10189;49.546;7.906;2023-05-17T03:24:20;4.70;97.10
20057;DHT22;10189;49.546;7.906;2023-05-17T03:26:47;4.70;97.50
20057;DHT22;10189;49.546;7.906;2023-05-17T03:29:13;4.80;97.40
20057;DHT22;10189;49.546;7.906;2023-05-17T03:31:41;4.80;97.10
20057;DHT22;10189;49.546;7.906;2023-05-17T03:34:07;4.80;97.00
20057;DHT22;10189;49.546;7.906;2023-05-17T03:36:34;4.80;96.80
20057;DHT22;10189;49.546;7.906;2023-05-17T03:39:00;4.90;96.30
20057;DHT22;10189;49.546;7.906;2023-05-17T03:41:27;4.90;96.00
20057;DHT22;10189;49.546;7.906;2023-05-17T03:43:53;4.90;95.50
20057;DHT22;10189;49.546;7.906;2023-05-17T03:46:23;4.90;96.10
20057;DHT22;10189;49.546;7.906;2023-05-17T03:48:49;4.80;96.10
20057;DHT22;10189;49.546;7.906;2023-05-17T03:51:16;4.70;96.20
20057;DHT22;10189;49.546;7.906;2023-05-17T03:53:43;4.50;96.90
20057;DHT22;10189;49.546;7.906;2023-05-17T03:56:09;4.40;97.20
20057;DHT22;10189;49.546;7.906;2023-05-17T03:58:36;4.30;97.80
20057;DHT22;10189;49.546;7.906;2023-05-17T04:01:03;4.20;98.60
20057;DHT22;10189;49.546;7.906;2023-05-17T04:03:30;4.20;99.10
20057;DHT22;10189;49.546;7.906;2023-05-17T04:06:03;4.20;99.20
20057;DHT22;10189;49.546;7.906;2023-05-17T04:08:34;4.20;99.40
20057;DHT22;10189;49.546;7.906;2023-05-17T04:11:00;4.10;99.60
20057;DHT22;10189;49.546;7.906;2023-05-17T04:13:35;4.10;99.90
20057;DHT22;10189;49.546;7.906;2023-05-17T04:16:02;4.00;99.90
20057;DHT22;10189;49.546;7.906;2023-05-17T04:18:28;4.10;99.90
20057;DHT22;10189;49.546;7.906;2023-05-17T04:20:54;4.10;99.90
20057;DHT22;10189;49.546;7.906;2023-05-17T04:23:20;4.20;99.90
20057;DHT22;10189;49.546;7.906;2023-05-17T04:25:47;4.20;99.90
20057;DHT22;10189;49.546;7.906;2023-05-17T04:28:14;4.30;99.90
20057;DHT22;10189;49.546;7.906;2023-05-17T04:30:44;4.40;99.90
20057;DHT22;10189;49.546;7.906;2023-05-17T04:33:11;4.50;99.90
20057;DHT22;10189;49.546;7.906;2023-05-17T04:35:41;4.60;99.80
20057;DHT22;10189;49.546;7.906;2023-05-17T04:38:08;4.80;99.70
20057;DHT22;10189;49.546;7.906;2023-05-17T04:40:36;5.00;99.40
20057;DHT22;10189;49.546;7.906;2023-05-17T04:43:02;5.20;98.90
20057;DHT22;10189;49.546;7.906;2023-05-17T04:45:28;5.50;98.40
20057;DHT22;10189;49.546;7.906;2023-05-17T04:47:54;5.70;97.60
20057;DHT22;10189;49.546;7.906;2023-05-17T04:50:20;6.00;96.90
20057;DHT22;10189;49.546;7.906;2023-05-17T04:52:46;6.20;96.10
20057;DHT22;10189;49.546;7.906;2023-05-17T04:55:13;6.40;94.90
20057;DHT22;10189;49.546;7.906;2023-05-17T04:57:39;6.70;93.40
20057;DHT22;10189;49.546;7.906;2023-05-17T05:00:06;6.90;91.90
20057;DHT22;10189;49.546;7.906;2023-05-17T05:02:35;7.10;89.60
20057;DHT22;10189;49.546;7.906;2023-05-17T05:05:04;7.30;87.60
20057;DHT22;10189;49.546;7.906;2023-05-17T05:07:32;7.40;86.30
20057;DHT22;10189;49.546;7.906;2023-05-17T05:09:58;7.60;85.20
20057;DHT22;10189;49.546;7.906;2023-05-17T05:12:24;7.70;85.20
20057;DHT22;10189;49.546;7.906;2023-05-17T05:14:50;7.80;85.40
20057;DHT22;10189;49.546;7.906;2023-05-17T05:17:16;8.00;84.10
20057;DHT22;10189;49.546;7.906;2023-05-17T05:19:44;8.20;83.70
20057;DHT22;10189;49.546;7.906;2023-05-17T05:22:13;8.30;82.50
20057;DHT22;10189;49.546;7.906;2023-05-17T05:24:39;8.40;82.90
20057;DHT22;10189;49.546;7.906;2023-05-17T05:27:06;8.50;82.50
20057;DHT22;10189;49.546;7.906;2023-05-17T05:29:32;8.60;82.60
20057;DHT22;10189;49.546;7.906;2023-05-17T05:31:58;8.70;82.10
20057;DHT22;10189;49.546;7.906;2023-05-17T05:34:24;8.80;81.60
20057;DHT22;10189;49.546;7.906;2023-05-17T05:36:51;8.80;82.30
20057;DHT22;10189;49.546;7.906;2023-05-17T05:39:17;9.00;80.80
20057;DHT22;10189;49.546;7.906;2023-05-17T05:41:43;9.10;81.00
20057;DHT22;10189;49.546;7.906;2023-05-17T05:44:09;8.90;80.50
20057;DHT22;10189;49.546;7.906;2023-05-17T05:46:35;9.00;81.10
20057;DHT22;10189;49.546;7.906;2023-05-17T05:49:02;9.20;78.80
20057;DHT22;10189;49.546;7.906;2023-05-17T05:51:30;9.20;78.60
20057;DHT22;10189;49.546;7.906;2023-05-17T05:53:57;9.30;79.40
20057;DHT22;10189;49.546;7.906;2023-05-17T05:56:24;9.40;78.70
20057;DHT22;10189;49.546;7.906;2023-05-17T05:58:56;9.60;77.00
20057;DHT22;10189;49.546;7.906;2023-05-17T06:01:23;9.70;78.10
20057;DHT22;10189;49.546;7.906;2023-05-17T06:03:49;9.90;76.50
20057;DHT22;10189;49.546;7.906;2023-05-17T06:06:15;10.10;75.40
20057;DHT22;10189;49.546;7.906;2023-05-17T06:08:44;10.10;73.80
20057;DHT22;10189;49.546;7.906;2023-05-17T06:11:14;10.10;75.60
20057;DHT22;10189;49.546;7.906;2023-05-17T06:13:40;10.20;73.90
20057;DHT22;10189;49.546;7.906;2023-05-17T06:16:06;10.30;72.40
20057;DHT22;10189;49.546;7.906;2023-05-17T06:18:32;10.30;71.50
20057;DHT22;10189;49.546;7.906;2023-05-17T06:20:58;10.40;70.50
20057;DHT22;10189;49.546;7.906;2023-05-17T06:23:24;10.40;71.00
20057;DHT22;10189;49.546;7.906;2023-05-17T06:25:50;10.50;72.00
20057;DHT22;10189;49.546;7.906;2023-05-17T06:28:16;10.60;71.40
20057;DHT22;10189;49.546;7.906;2023-05-17T06:30:42;10.60;71.00
20057;DHT22;10189;49.546;7.906;2023-05-17T06:33:09;10.70;71.60
20057;DHT22;10189;49.546;7.906;2023-05-17T06:35:35;10.70;69.70
20057;DHT22;10189;49.546;7.906;2023-05-17T06:38:01;10.80;71.50
20057;DHT22;10189;49.546;7.906;2023-05-17T06:40:27;10.50;72.90
20057;DHT22;10189;49.546;7.906;2023-05-17T06:42:52;10.40;73.90
20057;DHT22;10189;49.546;7.906;2023-05-17T06:45:18;10.70;74.30
20057;DHT22;10189;49.546;7.906;2023-05-17T06:47:44;10.80;72.60
20057;DHT22;10189;49.546;7.906;2023-05-17T06:50:10;11.10;74.00
20057;DHT22;10189;49.546;7.906;2023-05-17T06:52:36;11.10;71.70
20057;DHT22;10189;49.546;7.906;2023-05-17T06:55:02;11.10;71.50
20057;DHT22;10189;49.546;7.906;2023-05-17T06:57:28;11.30;71.20
20057;DHT22;10189;49.546;7.906;2023-05-17T06:59:54;11.60;70.90
20057;DHT22;10189;49.546;7.906;2023-05-17T07:02:20;11.80;70.60
20057;DHT22;10189;49.546;7.906;2023-05-17T07:04:46;11.70;68.70
20057;DHT22;10189;49.546;7.906;2023-05-17T07:07:12;11.70;68.40
20057;DHT22;10189;49.546;7.906;2023-05-17T07:09:37;11.50;67.80
20057;DHT22;10189;49.546;7.906;2023-05-17T07:12:04;11.20;69.70
20057;DHT22;10189;49.546;7.906;2023-05-17T07:14:30;11.10;69.50
20057;DHT22;10189;49.546;7.906;2023-05-17T07:16:57;11.00;71.80
20057;DHT22;10189;49.546;7.906;2023-05-17T07:19:23;11.20;70.30
20057;DHT22;10189;49.546;7.906;2023-05-17T07:21:51;11.30;67.60
20057;DHT22;10189;49.546;7.906;2023-05-17T07:24:17;11.40;64.70
20057;DHT22;10189;49.546;7.906;2023-05-17T07:26:43;11.40;65.80
20057;DHT22;10189;49.546;7.906;2023-05-17T07:29:11;11.60;65.80
20057;DHT22;10189;49.546;7.906;2023-05-17T07:31:37;11.60;63.90
20057;DHT22;10189;49.546;7.906;2023-05-17T07:34:03;11.50;64.10
20057;DHT22;10189;49.546;7.906;2023-05-17T07:36:29;11.20;63.80
20057;DHT22;10189;49.546;7.906;2023-05-17T07:38:56;11.00;66.60
20057;DHT22;10189;49.546;7.906;2023-05-17T07:41:22;11.00;69.60
20057;DHT22;10189;49.546;7.906;2023-05-17T07:43:48;11.00;67.80
20057;DHT22;10189;49.546;7.906;2023-05-17T07:46:17;11.10;65.50
20057;DHT22;10189;49.546;7.906;2023-05-17T07:48:42;11.20;65.40
20057;DHT22;10189;49.546;7.906;2023-05-17T07:51:08;10.90;63.70
20057;DHT22;10189;49.546;7.906;2023-05-17T07:53:34;10.50;64.80
20057;DHT22;10189;49.546;7.906;2023-05-17T07:56:00;10.40;66.00
20057;DHT22;10189;49.546;7.906;2023-05-17T07:58:26;10.40;66.50
20057;DHT22;10189;49.546;7.906;2023-05-17T08:00:52;10.50;66.80
20057;DHT22;10189;49.546;7.906;2023-05-17T08:03:18;10.40;66.70
20057;DHT22;10189;49.546;7.906;2023-05-17T08:05:44;10.40;66.90
20057;DHT22;10189;49.546;7.906;2023-05-17T08:08:09;10.40;67.70
20057;DHT22;10189;49.546;7.906;2023-05-17T08:10:35;10.70;67.60
20057;DHT22;10189;49.546;7.906;2023-05-17T08:13:03;10.80;65.70
20057;DHT22;10189;49.546;7.906;2023-05-17T08:15:31;10.80;66.00
20057;DHT22;10189;49.546;7.906;2023-05-17T08:17:56;10.80;66.40
20057;DHT22;10189;49.546;7.906;2023-05-17T08:20:22;11.00;67.50
20057;DHT22;10189;49.546;7.906;2023-05-17T08:22:48;11.20;65.20
20057;DHT22;10189;49.546;7.906;2023-05-17T08:25:14;11.40;65.70
20057;DHT22;10189;49.546;7.906;2023-05-17T08:27:40;11.50;64.70
20057;DHT22;10189;49.546;7.906;2023-05-17T08:30:06;11.60;64.50
20057;DHT22;10189;49.546;7.906;2023-05-17T08:32:32;11.40;64.50
20057;DHT22;10189;49.546;7.906;2023-05-17T08:34:58;11.30;64.20
20057;DHT22;10189;49.546;7.906;2023-05-17T08:37:24;11.20;62.30
20057;DHT22;10189;49.546;7.906;2023-05-17T08:39:50;11.20;64.80
20057;DHT22;10189;49.546;7.906;2023-05-17T08:42:21;11.60;64.10
20057;DHT22;10189;49.546;7.906;2023-05-17T08:44:50;11.90;62.00
20057;DHT22;10189;49.546;7.906;2023-05-17T08:47:18;12.30;57.00
20057;DHT22;10189;49.546;7.906;2023-05-17T08:49:57;12.20;55.90
20057;DHT22;10189;49.546;7.906;2023-05-17T08:52:30;12.00;54.80
20057;DHT22;10189;49.546;7.906;2023-05-17T08:54:57;11.80;56.20
20057;DHT22;10189;49.546;7.906;2023-05-17T08:57:27;11.40;55.60
20057;DHT22;10189;49.546;7.906;2023-05-17T08:59:54;11.20;58.40
20057;DHT22;10189;49.546;7.906;2023-05-17T09:02:23;11.50;58.70
20057;DHT22;10189;49.546;7.906;2023-05-17T09:04:50;11.80;57.90
20057;DHT22;10189;49.546;7.906;2023-05-17T09:07:20;12.10;55.70
20057;DHT22;10189;49.546;7.906;2023-05-17T09:09:52;12.10;55.00
20057;DHT22;10189;49.546;7.906;2023-05-17T09:12:22;12.10;55.60
20057;DHT22;10189;49.546;7.906;2023-05-17T09:14:48;12.10;55.40
20057;DHT22;10189;49.546;7.906;2023-05-17T09:17:19;12.00;55.90
20057;DHT22;10189;49.546;7.906;2023-05-17T09:19:47;11.90;57.10
20057;DHT22;10189;49.546;7.906;2023-05-17T09:22:17;11.90;57.40
20057;DHT22;10189;49.546;7.906;2023-05-17T09:24:44;12.00;57.40
20057;DHT22;10189;49.546;7.906;2023-05-17T09:27:16;12.10;56.90
20057;DHT22;10189;49.546;7.906;2023-05-17T09:29:46;12.00;57.10
20057;DHT22;10189;49.546;7.906;2023-05-17T09:32:17;12.00;57.40
20057;DHT22;10189;49.546;7.906;2023-05-17T09:34:45;12.10;57.20
20057;DHT22;10189;49.546;7.906;2023-05-17T09:37:16;12.00;56.50
20057;DHT22;10189;49.546;7.906;2023-05-17T09:39:44;12.00;56.40
20057;DHT22;10189;49.546;7.906;2023-05-17T09:42:12;11.80;57.00
20057;DHT22;10189;49.546;7.906;2023-05-17T09:44:49;11.80;56.60
20057;DHT22;10189;49.546;7.906;2023-05-17T09:47:33;11.80;57.10
20057;DHT22;10189;49.546;7.906;2023-05-17T09:50:00;12.20;58.30
20057;DHT22;10189;49.546;7.906;2023-05-17T09:52:29;12.50;56.10
20057;DHT22;10189;49.546;7.906;2023-05-17T09:54:59;12.30;57.50
20057;DHT22;10189;49.546;7.906;2023-05-17T09:57:27;12.40;56.80
20057;DHT22;10189;49.546;7.906;2023-05-17T10:00:01;12.80;55.80
20057;DHT22;10189;49.546;7.906;2023-05-17T10:02:30;13.40;56.10
20057;DHT22;10189;49.546;7.906;2023-05-17T10:05:03;13.50;54.50
20057;DHT22;10189;49.546;7.906;2023-05-17T10:07:33;13.20;54.90
20057;DHT22;10189;49.546;7.906;2023-05-17T10:09:59;12.90;54.60
20057;DHT22;10189;49.546;7.906;2023-05-17T10:12:27;12.10;56.60
20057;DHT22;10189;49.546;7.906;2023-05-17T10:14:55;12.20;57.60
20057;DHT22;10189;49.546;7.906;2023-05-17T10:17:21;12.30;59.20
20057;DHT22;10189;49.546;7.906;2023-05-17T10:19:48;12.10;60.70
20057;DHT22;10189;49.546;7.906;2023-05-17T10:22:15;12.20;62.10
20057;DHT22;10189;49.546;7.906;2023-05-17T10:24:42;12.40;58.40
20057;DHT22;10189;49.546;7.906;2023-05-17T10:27:12;12.60;58.00
20057;DHT22;10189;49.546;7.906;2023-05-17T10:29:38;12.80;55.30
20057;DHT22;10189;49.546;7.906;2023-05-17T10:32:06;12.80;56.10
20057;DHT22;10189;49.546;7.906;2023-05-17T10:34:37;13.00;56.00
20057;DHT22;10189;49.546;7.906;2023-05-17T10:37:04;13.30;54.40
20057;DHT22;10189;49.546;7.906;2023-05-17T10:39:32;13.80;53.00
20057;DHT22;10189;49.546;7.906;2023-05-17T10:42:04;14.10;52.80
20057;DHT22;10189;49.546;7.906;2023-05-17T10:44:33;14.10;51.30
20057;DHT22;10189;49.546;7.906;2023-05-17T10:47:00;14.00;52.80
20057;DHT22;10189;49.546;7.906;2023-05-17T10:49:31;13.40;50.40
20057;DHT22;10189;49.546;7.906;2023-05-17T10:52:20;12.70;53.00
20057;DHT22;10189;49.546;7.906;2023-05-17T10:54:48;12.40;54.80
20057;DHT22;10189;49.546;7.906;2023-05-17T10:57:31;12.30;55.80
20057;DHT22;10189;49.546;7.906;2023-05-17T11:00:00;12.50;57.00
20057;DHT22;10189;49.546;7.906;2023-05-17T11:02:32;12.80;57.40
20057;DHT22;10189;49.546;7.906;2023-05-17T11:04:59;13.20;55.00
20057;DHT22;10189;49.546;7.906;2023-05-17T11:07:30;13.40;52.60
20057;DHT22;10189;49.546;7.906;2023-05-17T11:12:44;13.70;52.30
20057;DHT22;10189;49.546;7.906;2023-05-17T11:15:14;14.00;51.50
20057;DHT22;10189;49.546;7.906;2023-05-17T11:22:48;14.30;50.90
20057;DHT22;10189;49.546;7.906;2023-05-17T11:25:27;14.00;48.90
20057;DHT22;10189;49.546;7.906;2023-05-17T11:27:54;13.50;50.00
20057;DHT22;10189;49.546;7.906;2023-05-17T11:30:30;13.20;50.70
20057;DHT22;10189;49.546;7.906;2023-05-17T11:33:02;13.20;52.40
20057;DHT22;10189;49.546;7.906;2023-05-17T11:35:34;13.10;52.80
20057;DHT22;10189;49.546;7.906;2023-05-17T11:38:18;13.10;52.40
20057;DHT22;10189;49.546;7.906;2023-05-17T11:40:54;13.30;52.70
20057;DHT22;10189;49.546;7.906;2023-05-17T11:43:25;13.30;52.70
20057;DHT22;10189;49.546;7.906;2023-05-17T11:45:57;12.80;53.90
20057;DHT22;10189;49.546;7.906;2023-05-17T11:48:28;12.80;54.50
20057;DHT22;10189;49.546;7.906;2023-05-17T11:50:55;13.00;54.20
20057;DHT22;10189;49.546;7.906;2023-05-17T11:53:23;13.30;52.80
20057;DHT22;10189;49.546;7.906;2023-05-17T11:55:50;13.40;51.50
20057;DHT22;10189;49.546;7.906;2023-05-17T11:58:23;13.50;50.40
20057;DHT22;10189;49.546;7.906;2023-05-17T12:00:52;13.60;49.70
20057;DHT22;10189;49.546;7.906;2023-05-17T12:03:28;13.90;49.80
20057;DHT22;10189;49.546;7.906;2023-05-17T12:06:15;14.20;51.30
20057;DHT22;10189;49.546;7.906;2023-05-17T12:08:45;14.50;50.20
20057;DHT22;10189;49.546;7.906;2023-05-17T12:11:14;14.40;50.40
20057;DHT22;10189;49.546;7.906;2023-05-17T12:13:44;14.30;50.50
20057;DHT22;10189;49.546;7.906;2023-05-17T12:16:14;14.50;48.00
20057;DHT22;10189;49.546;7.906;2023-05-17T12:18:43;14.60;48.80
20057;DHT22;10189;49.546;7.906;2023-05-17T12:21:12;14.50;47.50
20057;DHT22;10189;49.546;7.906;2023-05-17T12:23:41;14.20;48.20
20057;DHT22;10189;49.546;7.906;2023-05-17T12:26:10;14.10;51.00
20057;DHT22;10189;49.546;7.906;2023-05-17T12:28:42;14.00;49.90
20057;DHT22;10189;49.546;7.906;2023-05-17T12:31:18;14.20;48.80
20057;DHT22;10189;49.546;7.906;2023-05-17T12:33:47;13.80;48.00
20057;DHT22;10189;49.546;7.906;2023-05-17T12:36:15;13.90;47.90
20057;DHT22;10189;49.546;7.906;2023-05-17T12:38:43;14.40;47.50
20057;DHT22;10189;49.546;7.906;2023-05-17T12:41:13;14.50;47.40
20057;DHT22;10189;49.546;7.906;2023-05-17T12:43:44;14.30;46.50
20057;DHT22;10189;49.546;7.906;2023-05-17T12:46:15;13.80;47.90
20057;DHT22;10189;49.546;7.906;2023-05-17T12:48:48;13.80;48.60
20057;DHT22;10189;49.546;7.906;2023-05-17T12:51:17;14.00;48.00
20057;DHT22;10189;49.546;7.906;2023-05-17T12:53:52;14.20;49.70
20057;DHT22;10189;49.546;7.906;2023-05-17T12:56:27;14.40;48.50
20057;DHT22;10189;49.546;7.906;2023-05-17T13:01:46;14.80;47.20
20057;DHT22;10189;49.546;7.906;2023-05-17T13:04:15;14.60;47.90
20057;DHT22;10189;49.546;7.906;2023-05-17T13:06:50;14.80;46.70
20057;DHT22;10189;49.546;7.906;2023-05-17T13:09:19;14.90;48.20
20057;DHT22;10189;49.546;7.906;2023-05-17T13:14:43;15.00;47.50
20057;DHT22;10189;49.546;7.906;2023-05-17T13:17:11;15.10;48.10
20057;DHT22;10189;49.546;7.906;2023-05-17T13:19:38;15.20;47.70
20057;DHT22;10189;49.546;7.906;2023-05-17T13:22:05;15.30;46.10
20057;DHT22;10189;49.546;7.906;2023-05-17T13:24:38;15.40;45.10
20057;DHT22;10189;49.546;7.906;2023-05-17T13:27:05;15.90;44.30
20057;DHT22;10189;49.546;7.906;2023-05-17T13:29:33;15.80;43.90
20057;DHT22;10189;49.546;7.906;2023-05-17T13:32:01;15.50;45.60
20057;DHT22;10189;49.546;7.906;2023-05-17T13:34:28;15.70;44.70
20057;DHT22;10189;49.546;7.906;2023-05-17T13:36:53;15.70;47.20
20057;DHT22;10189;49.546;7.906;2023-05-17T13:39:22;15.00;46.90
20057;DHT22;10189;49.546;7.906;2023-05-17T13:41:48;14.90;46.10
20057;DHT22;10189;49.546;7.906;2023-05-17T13:44:14;14.60;47.90
20057;DHT22;10189;49.546;7.906;2023-05-17T13:46:40;14.40;46.60
20057;DHT22;10189;49.546;7.906;2023-05-17T13:49:06;14.30;47.50
20057;DHT22;10189;49.546;7.906;2023-05-17T13:51:33;14.40;47.60
20057;DHT22;10189;49.546;7.906;2023-05-17T13:53:59;14.50;47.60
20057;DHT22;10189;49.546;7.906;2023-05-17T13:56:26;14.70;47.50
20057;DHT22;10189;49.546;7.906;2023-05-17T13:58:51;14.80;46.80
20057;DHT22;10189;49.546;7.906;2023-05-17T14:01:17;14.80;45.20
20057;DHT22;10189;49.546;7.906;2023-05-17T14:03:44;14.80;45.90
20057;DHT22;10189;49.546;7.906;2023-05-17T14:06:10;14.60;46.90
20057;DHT22;10189;49.546;7.906;2023-05-17T14:08:36;14.70;45.10
20057;DHT22;10189;49.546;7.906;2023-05-17T14:11:02;14.80;45.70
20057;DHT22;10189;49.546;7.906;2023-05-17T14:13:28;14.60;44.90
20057;DHT22;10189;49.546;7.906;2023-05-17T14:15:54;14.50;46.00
20057;DHT22;10189;49.546;7.906;2023-05-17T14:18:20;14.70;47.10
20057;DHT22;10189;49.546;7.906;2023-05-17T14:20:46;15.10;46.60
20057;DHT22;10189;49.546;7.906;2023-05-17T14:23:12;15.50;45.60
20057;DHT22;10189;49.546;7.906;2023-05-17T14:25:38;15.50;44.00
20057;DHT22;10189;49.546;7.906;2023-05-17T14:28:04;15.50;43.90
20057;DHT22;10189;49.546;7.906;2023-05-17T14:30:30;15.50;44.80
20057;DHT22;10189;49.546;7.906;2023-05-17T14:32:57;15.40;43.70
20057;DHT22;10189;49.546;7.906;2023-05-17T14:35:23;15.50;44.50
20057;DHT22;10189;49.546;7.906;2023-05-17T14:37:49;15.90;45.10
20057;DHT22;10189;49.546;7.906;2023-05-17T14:40:15;16.00;43.20
20057;DHT22;10189;49.546;7.906;2023-05-17T14:42:43;16.00;42.30
20057;DHT22;10189;49.546;7.906;2023-05-17T14:45:09;15.80;42.50
20057;DHT22;10189;49.546;7.906;2023-05-17T14:47:35;15.80;42.00
20057;DHT22;10189;49.546;7.906;2023-05-17T14:50:01;15.50;42.00
20057;DHT22;10189;49.546;7.906;2023-05-17T14:52:26;15.60;42.80
20057;DHT22;10189;49.546;7.906;2023-05-17T14:54:52;15.70;41.70
20057;DHT22;10189;49.546;7.906;2023-05-17T14:57:18;15.30;40.70
20057;DHT22;10189;49.546;7.906;2023-05-17T14:59:46;15.00;42.80
20057;DHT22;10189;49.546;7.906;2023-05-17T15:02:12;15.20;42.50
20057;DHT22;10189;49.546;7.906;2023-05-17T15:04:38;15.40;43.10
20057;DHT22;10189;49.546;7.906;2023-05-17T15:07:04;15.40;41.10
20057;DHT22;10189;49.546;7.906;2023-05-17T15:09:30;15.20;41.20
20057;DHT22;10189;49.546;7.906;2023-05-17T15:11:56;15.00;43.20
20057;DHT22;10189;49.546;7.906;2023-05-17T15:14:22;15.00;44.50
20057;DHT22;10189;49.546;7.906;2023-05-17T15:16:50;15.10;44.10
20057;DHT22;10189;49.546;7.906;2023-05-17T15:19:17;15.20;44.00
20057;DHT22;10189;49.546;7.906;2023-05-17T15:21:43;15.30;43.50
20057;DHT22;10189;49.546;7.906;2023-05-17T15:24:10;15.30;41.80
20057;DHT22;10189;49.546;7.906;2023-05-17T15:26:37;15.20;41.20
20057;DHT22;10189;49.546;7.906;2023-05-17T15:29:03;15.10;42.00
20057;DHT22;10189;49.546;7.906;2023-05-17T15:31:29;15.10;42.40
20057;DHT22;10189;49.546;7.906;2023-05-17T15:33:55;15.10;42.30
20057;DHT22;10189;49.546;7.906;2023-05-17T15:36:22;15.00;41.50
20057;DHT22;10189;49.546;7.906;2023-05-17T15:38:48;14.80;41.10
20057;DHT22;10189;49.546;7.906;2023-05-17T15:41:15;14.70;42.80
20057;DHT22;10189;49.546;7.906;2023-05-17T15:43:42;14.70;43.90
20057;DHT22;10189;49.546;7.906;2023-05-17T15:46:08;14.70;43.40
20057;DHT22;10189;49.546;7.906;2023-05-17T15:48:34;14.70;43.50
20057;DHT22;10189;49.546;7.906;2023-05-17T15:51:01;14.80;42.80
20057;DHT22;10189;49.546;7.906;2023-05-17T15:53:28;14.90;42.10
20057;DHT22;10189;49.546;7.906;2023-05-17T15:55:55;15.30;42.90
20057;DHT22;10189;49.546;7.906;2023-05-17T15:58:23;16.00;40.30
20057;DHT22;10189;49.546;7.906;2023-05-17T16:00:52;16.50;40.50
20057;DHT22;10189;49.546;7.906;2023-05-17T16:03:19;16.70;40.00
20057;DHT22;10189;49.546;7.906;2023-05-17T16:05:45;16.40;39.10
20057;DHT22;10189;49.546;7.906;2023-05-17T16:08:11;16.10;39.90